createdAt,value
2018-08-23T00:00:56.453Z,0
2018-08-23T00:01:56.444Z,0
2018-08-23T00:02:56.800Z,0
2018-08-23T00:03:56.697Z,0
2018-08-23T00:04:56.697Z,0
2018-08-23T00:05:56.701Z,0
2018-08-23T00:06:56.444Z,0
2018-08-23T00:07:56.733Z,0
2018-08-23T00:08:56.792Z,0
2018-08-23T00:09:56.730Z,0
2018-08-23T00:10:56.691Z,0
2018-08-23T00:11:56.704Z,0
2018-08-23T00:12:56.681Z,0
2018-08-23T00:13:57.088Z,0
2018-08-23T00:14:56.410Z,0
2018-08-23T00:15:56.441Z,0
2018-08-23T00:16:56.855Z,0
2018-08-23T00:17:56.451Z,0
2018-08-23T00:18:56.407Z,0
2018-08-23T00:19:56.396Z,0
2018-08-23T00:20:56.390Z,0
2018-08-23T00:21:56.390Z,0
2018-08-23T00:22:56.644Z,0
2018-08-23T00:23:56.644Z,0
2018-08-23T00:24:56.375Z,0
2018-08-23T00:25:56.633Z,0
2018-08-23T00:26:56.418Z,0
2018-08-23T00:27:56.373Z,0
2018-08-23T00:28:56.632Z,0
2018-08-23T00:29:56.365Z,0
2018-08-23T00:30:56.626Z,0
2018-08-23T00:31:56.617Z,0
2018-08-23T00:32:56.400Z,0
2018-08-23T00:33:56.610Z,0
2018-08-23T00:34:56.352Z,0
2018-08-23T00:35:56.603Z,0
2018-08-23T00:36:56.607Z,0
2018-08-23T00:37:56.344Z,0
2018-08-23T00:38:56.343Z,0
2018-08-23T00:39:56.095Z,0
2018-08-23T00:40:56.592Z,0
2018-08-23T00:41:56.082Z,0
2018-08-23T00:42:56.331Z,0
2018-08-23T00:43:56.072Z,0
2018-08-23T00:44:56.583Z,0
2018-08-23T00:45:56.328Z,0
2018-08-23T00:46:56.321Z,0
2018-08-23T00:47:56.573Z,0
2018-08-23T00:48:56.318Z,0
2018-08-23T00:49:56.309Z,0
2018-08-23T00:50:56.566Z,0
2018-08-23T00:51:56.572Z,0
2018-08-23T00:52:56.305Z,0
2018-08-23T00:53:56.556Z,0
2018-08-23T00:54:56.556Z,0
2018-08-23T00:55:56.300Z,0
2018-08-23T00:56:56.561Z,0
2018-08-23T00:57:56.551Z,0
2018-08-23T00:58:56.546Z,0
2018-08-23T00:59:56.287Z,0
2018-08-23T01:00:56.543Z,0
2018-08-23T01:01:56.282Z,0
2018-08-23T01:02:56.277Z,0
2018-08-23T01:03:56.534Z,0
2018-08-23T01:04:56.017Z,0
2018-08-23T01:05:56.527Z,0
2018-08-23T01:06:56.528Z,0
2018-08-23T01:07:56.519Z,0
2018-08-23T01:08:56.316Z,0
2018-08-23T01:09:56.511Z,0
2018-08-23T01:10:56.517Z,0
2018-08-23T01:11:56.514Z,0
2018-08-23T01:12:56.520Z,0
2018-08-23T01:13:56.507Z,0
2018-08-23T01:14:56.539Z,0
2018-08-23T01:15:56.501Z,0
2018-08-23T01:16:56.299Z,0
2018-08-23T01:17:56.495Z,0
2018-08-23T01:18:56.233Z,0
2018-08-23T01:19:56.231Z,0
2018-08-23T01:20:56.226Z,0
2018-08-23T01:21:55.967Z,0
2018-08-23T01:22:56.483Z,0
2018-08-23T01:23:56.224Z,0
2018-08-23T01:24:56.498Z,0
2018-08-23T01:25:56.478Z,0
2018-08-23T01:26:55.954Z,0
2018-08-23T01:27:56.467Z,0
2018-08-23T01:28:56.465Z,0
2018-08-23T01:29:56.206Z,0
2018-08-23T01:30:56.204Z,0
2018-08-23T01:31:56.457Z,0
2018-08-23T01:32:56.452Z,0
2018-08-23T01:33:56.199Z,0
2018-08-23T01:34:56.186Z,0
2018-08-23T01:35:56.447Z,0
2018-08-23T01:36:55.940Z,0
2018-08-23T01:37:55.926Z,0
2018-08-23T01:38:56.434Z,0
2018-08-23T01:39:56.174Z,0
2018-08-23T01:40:56.173Z,0
2018-08-23T01:41:56.168Z,0
2018-08-23T01:42:56.430Z,0
2018-08-23T01:43:56.429Z,0
2018-08-23T01:44:56.419Z,0
2018-08-23T01:45:56.167Z,0
2018-08-23T01:46:56.158Z,0
2018-08-23T01:47:56.157Z,0
2018-08-23T01:48:56.413Z,0
2018-08-23T01:49:56.151Z,0
2018-08-23T01:50:56.401Z,0
2018-08-23T01:51:55.898Z,0
2018-08-23T01:52:56.406Z,0
2018-08-23T01:53:56.139Z,0
2018-08-23T01:54:56.396Z,0
2018-08-23T01:55:56.392Z,0
2018-08-23T01:56:55.877Z,0
2018-08-23T01:57:56.399Z,0
2018-08-23T01:58:55.876Z,0
2018-08-23T01:59:56.125Z,0
2018-08-23T02:00:56.126Z,0
2018-08-23T02:01:56.375Z,0
2018-08-23T02:02:56.116Z,0
2018-08-23T02:03:56.374Z,0
2018-08-23T02:04:56.375Z,0
2018-08-23T02:05:56.375Z,0
2018-08-23T02:06:56.108Z,0
2018-08-23T02:07:55.845Z,0
2018-08-23T02:08:56.358Z,0
2018-08-23T02:09:56.365Z,0
2018-08-23T02:10:56.094Z,0
2018-08-23T02:11:56.350Z,0
2018-08-23T02:12:56.346Z,0
2018-08-23T02:13:56.352Z,0
2018-08-23T02:14:56.341Z,0
2018-08-23T02:15:56.342Z,0
2018-08-23T02:16:56.081Z,0
2018-08-23T02:17:56.091Z,0
2018-08-23T02:18:56.328Z,0
2018-08-23T02:19:56.066Z,0
2018-08-23T02:20:56.070Z,0
2018-08-23T02:21:56.069Z,0
2018-08-23T02:22:56.064Z,0
2018-08-23T02:23:56.062Z,0
2018-08-23T02:24:55.806Z,0
2018-08-23T02:25:56.311Z,0
2018-08-23T02:26:56.314Z,0
2018-08-23T02:27:56.049Z,0
2018-08-23T02:28:56.304Z,0
2018-08-23T02:29:56.051Z,0
2018-08-23T02:30:56.300Z,0
2018-08-23T02:31:56.296Z,0
2018-08-23T02:32:56.289Z,0
2018-08-23T02:33:56.036Z,0
2018-08-23T02:34:56.289Z,0
2018-08-23T02:35:56.027Z,0
2018-08-23T02:36:56.283Z,0
2018-08-23T02:37:56.022Z,0
2018-08-23T02:38:56.032Z,0
2018-08-23T02:39:56.273Z,0
2018-08-23T02:40:56.271Z,0
2018-08-23T02:41:56.016Z,0
2018-08-23T02:42:56.009Z,0
2018-08-23T02:43:56.267Z,0
2018-08-23T02:44:56.009Z,0
2018-08-23T02:45:56.010Z,0
2018-08-23T02:46:55.995Z,0
2018-08-23T02:47:55.997Z,0
2018-08-23T02:48:56.257Z,0
2018-08-23T02:49:56.259Z,0
2018-08-23T02:50:56.258Z,0
2018-08-23T02:51:56.246Z,0
2018-08-23T02:52:56.288Z,0
2018-08-23T02:53:56.245Z,0
2018-08-23T02:54:55.982Z,0
2018-08-23T02:55:56.261Z,0
2018-08-23T02:56:55.975Z,0
2018-08-23T02:57:55.969Z,0
2018-08-23T02:58:56.229Z,0
2018-08-23T02:59:56.220Z,0
2018-08-23T03:00:56.222Z,0
2018-08-23T03:01:55.972Z,0
2018-08-23T03:02:56.219Z,0
2018-08-23T03:03:55.949Z,0
2018-08-23T03:04:56.210Z,0
2018-08-23T03:05:55.948Z,0
2018-08-23T03:06:56.223Z,0
2018-08-23T03:07:55.945Z,0
2018-08-23T03:08:56.194Z,0
2018-08-23T03:09:55.934Z,0
2018-08-23T03:10:56.192Z,0
2018-08-23T03:11:55.933Z,0
2018-08-23T03:12:56.184Z,0
2018-08-23T03:13:56.186Z,0
2018-08-23T03:14:56.197Z,0
2018-08-23T03:15:56.172Z,0
2018-08-23T03:16:55.919Z,0
2018-08-23T03:17:55.912Z,0
2018-08-23T03:18:55.911Z,0
2018-08-23T03:19:55.903Z,0
2018-08-23T03:20:55.654Z,0
2018-08-23T03:21:56.152Z,0
2018-08-23T03:22:56.156Z,0
2018-08-23T03:23:55.634Z,0
2018-08-23T03:24:56.143Z,0
2018-08-23T03:25:56.152Z,0
2018-08-23T03:26:56.139Z,0
2018-08-23T03:27:56.146Z,0
2018-08-23T03:28:55.619Z,0
2018-08-23T03:29:56.135Z,0
2018-08-23T03:30:55.611Z,0
2018-08-23T03:31:55.615Z,0
2018-08-23T03:32:56.128Z,0
2018-08-23T03:33:56.126Z,0
2018-08-23T03:34:56.118Z,0
2018-08-23T03:35:56.119Z,0
2018-08-23T03:36:55.854Z,0
2018-08-23T03:37:56.106Z,0
2018-08-23T03:38:56.106Z,4
2018-08-23T03:39:55.859Z,4
2018-08-23T03:40:56.095Z,0
2018-08-23T03:41:55.839Z,4
2018-08-23T03:42:55.838Z,4
2018-08-23T03:43:55.573Z,4
2018-08-23T03:44:55.824Z,8
2018-08-23T03:45:55.577Z,4
2018-08-23T03:46:55.817Z,8
2018-08-23T03:47:56.078Z,8
2018-08-23T03:48:56.073Z,8
2018-08-23T03:49:55.812Z,12
2018-08-23T03:50:56.061Z,16
2018-08-23T03:51:56.075Z,20
2018-08-23T03:52:56.065Z,20
2018-08-23T03:53:55.797Z,20
2018-08-23T03:54:55.795Z,28
2018-08-23T03:55:56.057Z,32
2018-08-23T03:56:55.788Z,36
2018-08-23T03:57:55.784Z,40
2018-08-23T03:58:55.795Z,44
2018-08-23T03:59:55.525Z,52
2018-08-23T04:00:56.033Z,56
2018-08-23T04:01:55.520Z,68
2018-08-23T04:02:56.022Z,72
2018-08-23T04:03:56.024Z,80
2018-08-23T04:04:56.022Z,92
2018-08-23T04:05:55.244Z,100
2018-08-23T04:06:55.757Z,112
2018-08-23T04:07:56.022Z,120
2018-08-23T04:08:56.015Z,132
2018-08-23T04:09:56.001Z,144
2018-08-23T04:10:55.737Z,160
2018-08-23T04:11:56.002Z,172
2018-08-23T04:12:55.989Z,188
2018-08-23T04:13:55.991Z,204
2018-08-23T04:14:55.987Z,220
2018-08-23T04:15:55.727Z,240
2018-08-23T04:16:55.734Z,256
2018-08-23T04:17:55.733Z,276
2018-08-23T04:18:55.716Z,296
2018-08-23T04:19:55.710Z,316
2018-08-23T04:20:55.731Z,340
2018-08-23T04:21:55.966Z,360
2018-08-23T04:22:56.464Z,384
2018-08-23T04:23:55.702Z,408
2018-08-23T04:24:55.691Z,432
2018-08-23T04:25:55.947Z,464
2018-08-23T04:26:55.688Z,488
2018-08-23T04:27:55.947Z,520
2018-08-23T04:28:55.938Z,556
2018-08-23T04:29:55.945Z,588
2018-08-23T04:30:55.673Z,620
2018-08-23T04:31:55.414Z,656
2018-08-23T04:32:55.680Z,696
2018-08-23T04:33:55.926Z,732
2018-08-23T04:34:55.919Z,772
2018-08-23T04:35:55.921Z,812
2018-08-23T04:36:55.653Z,856
2018-08-23T04:37:55.910Z,896
2018-08-23T04:38:55.903Z,932
2018-08-23T04:39:55.649Z,972
2018-08-23T04:40:55.900Z,1008
2018-08-23T04:41:55.903Z,1044
2018-08-23T04:42:55.639Z,1080
2018-08-23T04:43:55.630Z,1116
2018-08-23T04:44:55.630Z,1156
2018-08-23T04:45:55.882Z,1188
2018-08-23T04:46:55.367Z,1228
2018-08-23T04:47:55.878Z,1260
2018-08-23T04:48:55.875Z,1296
2018-08-23T04:49:55.615Z,1336
2018-08-23T04:50:55.907Z,1376
2018-08-23T04:51:56.170Z,1408
2018-08-23T04:52:55.873Z,1448
2018-08-23T04:53:55.601Z,1480
2018-08-23T04:54:55.852Z,1516
2018-08-23T04:55:55.853Z,1552
2018-08-23T04:56:55.850Z,1584
2018-08-23T04:57:55.850Z,1620
2018-08-23T04:58:55.843Z,1648
2018-08-23T04:59:55.837Z,1680
2018-08-23T05:00:55.584Z,1712
2018-08-23T05:01:55.831Z,1744
2018-08-23T05:02:55.571Z,1772
2018-08-23T05:03:55.634Z,1804
2018-08-23T05:04:55.822Z,1836
2018-08-23T05:05:55.565Z,1864
2018-08-23T05:06:55.568Z,1892
2018-08-23T05:07:55.820Z,1920
2018-08-23T05:08:55.821Z,1948
2018-08-23T05:09:55.552Z,1972
2018-08-23T05:10:55.546Z,1996
2018-08-23T05:11:55.808Z,2020
2018-08-23T05:12:55.540Z,2044
2018-08-23T05:13:55.849Z,2068
2018-08-23T05:14:55.794Z,2088
2018-08-23T05:15:55.838Z,2112
2018-08-23T05:16:55.531Z,2136
2018-08-23T05:17:55.531Z,2156
2018-08-23T05:19:55.519Z,2208
2018-08-23T05:20:55.775Z,2228
2018-08-23T05:21:55.257Z,2252
2018-08-23T05:22:55.768Z,2272
2018-08-23T05:23:55.508Z,2292
2018-08-23T05:24:55.414Z,2312
2018-08-23T05:25:55.765Z,2328
2018-08-23T05:26:55.759Z,2348
2018-08-23T05:27:55.754Z,2368
2018-08-23T05:28:55.752Z,2384
2018-08-23T05:29:55.736Z,2400
2018-08-23T05:30:55.752Z,2420
2018-08-23T05:31:55.765Z,2436
2018-08-23T05:32:55.742Z,2452
2018-08-23T05:33:55.745Z,2468
2018-08-23T05:34:55.760Z,2488
2018-08-23T05:35:55.480Z,2500
2018-08-23T05:36:55.220Z,2524
2018-08-23T05:37:55.728Z,2540
2018-08-23T05:38:55.728Z,2556
2018-08-23T05:39:55.464Z,2572
2018-08-23T05:40:55.727Z,2588
2018-08-23T05:41:55.466Z,2604
2018-08-23T05:42:55.200Z,2616
2018-08-23T05:43:55.714Z,2632
2018-08-23T05:44:55.709Z,2644
2018-08-23T05:45:55.719Z,2656
2018-08-23T05:46:55.447Z,2672
2018-08-23T05:47:55.760Z,2684
2018-08-23T05:48:55.444Z,2696
2018-08-23T05:49:55.697Z,2712
2018-08-23T05:50:55.742Z,2728
2018-08-23T05:51:55.697Z,2744
2018-08-23T05:52:55.696Z,2756
2018-08-23T05:53:55.699Z,2768
2018-08-23T05:54:55.434Z,2780
2018-08-23T05:55:55.686Z,2788
2018-08-23T05:56:55.686Z,2800
2018-08-23T05:57:55.679Z,2812
2018-08-23T05:58:55.421Z,2820
2018-08-23T05:59:55.675Z,2832
2018-08-23T06:00:55.419Z,2844
2018-08-23T06:01:55.419Z,2856
2018-08-23T06:02:56.083Z,2868
2018-08-23T06:03:55.421Z,2880
2018-08-23T06:04:55.680Z,2888
2018-08-23T06:05:55.408Z,2900
2018-08-23T06:06:55.414Z,2912
2018-08-23T06:07:55.404Z,2920
2018-08-23T06:08:55.661Z,2932
2018-08-23T06:09:55.657Z,2940
2018-08-23T06:10:55.650Z,2948
2018-08-23T06:11:55.393Z,2956
2018-08-23T06:12:55.651Z,2964
2018-08-23T06:13:55.653Z,2976
2018-08-23T06:14:55.131Z,2984
2018-08-23T06:15:55.650Z,2996
2018-08-23T06:16:55.645Z,3004
2018-08-23T06:17:55.128Z,3016
2018-08-23T06:18:55.650Z,3024
2018-08-23T06:19:55.556Z,3032
2018-08-23T06:20:55.636Z,3048
2018-08-23T06:21:55.633Z,3056
2018-08-23T06:22:55.639Z,3064
2018-08-23T06:23:55.637Z,3076
2018-08-23T06:24:55.628Z,3080
2018-08-23T06:25:55.113Z,3092
2018-08-23T06:26:55.626Z,3100
2018-08-23T06:27:55.627Z,3108
2018-08-23T06:28:55.629Z,3120
2018-08-23T06:29:55.110Z,3128
2018-08-23T06:30:55.362Z,3136
2018-08-23T06:31:55.368Z,3144
2018-08-23T06:32:56.178Z,3152
2018-08-23T06:33:55.535Z,3156
2018-08-23T06:34:55.634Z,3164
2018-08-23T06:35:55.362Z,3172
2018-08-23T06:36:55.613Z,3180
2018-08-23T06:37:55.110Z,3188
2018-08-23T06:38:55.593Z,3204
2018-08-23T06:39:55.629Z,3308
2018-08-23T06:40:55.613Z,3500
2018-08-23T06:41:55.612Z,3540
2018-08-23T06:42:55.359Z,3552
2018-08-23T06:43:55.087Z,3680
2018-08-23T06:44:55.608Z,4100
2018-08-23T06:45:55.668Z,4228
2018-08-23T06:46:55.083Z,4044
2018-08-23T06:47:55.339Z,5280
2018-08-23T06:48:55.905Z,7060
2018-08-23T06:49:55.348Z,9244
2018-08-23T06:50:55.085Z,8816
2018-08-23T06:51:55.107Z,10300
2018-08-23T06:52:55.593Z,13044
2018-08-23T06:53:55.332Z,13404
2018-08-23T06:54:55.342Z,14628
2018-08-23T06:55:55.602Z,18080
2018-08-23T06:56:55.332Z,19744
2018-08-23T06:57:55.342Z,22112
2018-08-23T06:58:55.508Z,26656
2018-08-23T06:59:55.344Z,32960
2018-08-23T07:00:55.596Z,42112
2018-08-23T07:01:55.594Z,47328
2018-08-23T07:02:55.595Z,43552
2018-08-23T07:03:55.357Z,38304
2018-08-23T07:04:55.609Z,34784
2018-08-23T07:05:55.601Z,31936
2018-08-23T07:06:56.061Z,29920
2018-08-23T07:07:55.354Z,31552
2018-08-23T07:08:55.614Z,35136
2018-08-23T07:09:55.367Z,37184
2018-08-23T07:10:55.626Z,34272
2018-08-23T07:11:56.208Z,31264
2018-08-23T07:12:55.379Z,31104
2018-08-23T07:13:55.385Z,28352
2018-08-23T07:14:55.384Z,20288
2018-08-23T07:15:55.387Z,10292
2018-08-23T07:16:55.140Z,5724
2018-08-23T07:17:55.604Z,5144
2018-08-23T07:18:55.664Z,4800
2018-08-23T07:19:55.676Z,4588
2018-08-23T07:20:55.679Z,4436
2018-08-23T07:21:55.688Z,4336
2018-08-23T07:22:55.716Z,4244
2018-08-23T07:23:55.187Z,4172
2018-08-23T07:24:55.452Z,4104
2018-08-23T07:25:55.458Z,4048
2018-08-23T07:26:55.791Z,4012
2018-08-23T07:27:55.732Z,3992
2018-08-23T07:28:55.744Z,3984
2018-08-23T07:29:56.157Z,3980
2018-08-23T07:30:55.763Z,3984
2018-08-23T07:31:55.505Z,3980
2018-08-23T07:32:55.773Z,3972
2018-08-23T07:33:55.312Z,3980
2018-08-23T07:34:55.788Z,3968
2018-08-23T07:35:55.854Z,3956
2018-08-23T07:36:55.549Z,3952
2018-08-23T07:37:55.806Z,3948
2018-08-23T07:38:55.824Z,3948
2018-08-23T07:39:55.570Z,3952
2018-08-23T07:40:55.579Z,3956
2018-08-23T07:41:55.586Z,3952
2018-08-23T07:42:55.710Z,3944
2018-08-23T07:43:55.861Z,3936
2018-08-23T07:44:55.869Z,3932
2018-08-23T07:45:55.615Z,3948
2018-08-23T07:46:55.878Z,3924
2018-08-23T07:47:55.638Z,3904
2018-08-23T07:48:55.956Z,3876
2018-08-23T07:49:56.015Z,3880
2018-08-23T07:50:55.911Z,3880
2018-08-23T07:51:55.657Z,3872
2018-08-23T07:52:56.692Z,3872
2018-08-23T07:53:55.410Z,3876
2018-08-23T07:54:55.980Z,3872
2018-08-23T07:55:55.942Z,3872
2018-08-23T07:56:55.699Z,3864
2018-08-23T07:57:55.957Z,3860
2018-08-23T07:58:55.709Z,3852
2018-08-23T07:59:55.966Z,3840
2018-08-23T08:00:55.971Z,3832
2018-08-23T08:01:55.724Z,3820
2018-08-23T08:02:55.988Z,3820
2018-08-23T08:03:55.483Z,3816
2018-08-23T08:04:55.995Z,3812
2018-08-23T08:05:56.006Z,3812
2018-08-23T08:06:55.755Z,3816
2018-08-23T08:07:56.028Z,3808
2018-08-23T08:08:56.021Z,3792
2018-08-23T08:09:56.030Z,3780
2018-08-23T08:10:56.035Z,3776
2018-08-23T08:11:56.049Z,3768
2018-08-23T08:12:56.044Z,3764
2018-08-23T08:13:55.799Z,3760
2018-08-23T08:14:56.448Z,3748
2018-08-23T08:15:56.059Z,3740
2018-08-23T08:16:55.810Z,3732
2018-08-23T08:17:55.563Z,3728
2018-08-23T08:18:56.079Z,3724
2018-08-23T08:19:56.087Z,3724
2018-08-23T08:20:56.418Z,3716
2018-08-23T08:21:56.107Z,3716
2018-08-23T08:22:56.189Z,3712
2018-08-23T08:23:55.850Z,3708
2018-08-23T08:24:56.114Z,3700
2018-08-23T08:25:56.139Z,3700
2018-08-23T08:26:55.868Z,3696
2018-08-23T08:27:55.874Z,3692
2018-08-23T08:28:55.873Z,3700
2018-08-23T08:29:56.139Z,3700
2018-08-23T08:30:56.146Z,3696
2018-08-23T08:31:55.893Z,3688
2018-08-23T08:32:55.646Z,3684
2018-08-23T08:33:55.646Z,3684
2018-08-23T08:34:55.653Z,3680
2018-08-23T08:35:56.233Z,3668
2018-08-23T08:36:55.922Z,3664
2018-08-23T08:37:55.926Z,3656
2018-08-23T08:38:56.192Z,3648
2018-08-23T08:39:56.199Z,3656
2018-08-23T08:40:55.954Z,3660
2018-08-23T08:41:56.036Z,3664
2018-08-23T08:42:55.959Z,3664
2018-08-23T08:43:55.961Z,3684
2018-08-23T08:44:55.967Z,3692
2018-08-23T08:45:55.983Z,3692
2018-08-23T08:46:56.229Z,3684
2018-08-23T08:47:56.245Z,3664
2018-08-23T08:48:55.986Z,3648
2018-08-23T08:49:55.992Z,3644
2018-08-23T08:50:55.999Z,3640
2018-08-23T08:51:56.005Z,3648
2018-08-23T08:52:56.273Z,3652
2018-08-23T08:53:56.279Z,3680
2018-08-23T08:54:56.019Z,3680
2018-08-23T08:55:55.768Z,3664
2018-08-23T08:56:56.463Z,3660
2018-08-23T08:57:56.665Z,3648
2018-08-23T08:58:56.303Z,3648
2018-08-23T08:59:56.050Z,3652
2018-08-23T09:00:55.799Z,3648
2018-08-23T09:01:56.314Z,3656
2018-08-23T09:02:55.551Z,3660
2018-08-23T09:03:55.814Z,3652
2018-08-23T09:04:56.077Z,3660
2018-08-23T09:05:56.082Z,3644
2018-08-23T09:06:56.362Z,3616
2018-08-23T09:07:56.354Z,3612
2018-08-23T09:08:56.356Z,3612
2018-08-23T09:09:56.935Z,3608
2018-08-23T09:10:56.373Z,3608
2018-08-23T09:11:56.421Z,3596
2018-08-23T09:12:56.392Z,3588
2018-08-23T09:13:56.135Z,3564
2018-08-23T09:14:56.392Z,3536
2018-08-23T09:15:56.143Z,3496
2018-08-23T09:16:56.425Z,3484
2018-08-23T09:17:56.412Z,3476
2018-08-23T09:18:56.479Z,3496
2018-08-23T09:19:56.434Z,3496
2018-08-23T09:20:56.723Z,3508
2018-08-23T09:21:56.181Z,3520
2018-08-23T09:22:56.197Z,3560
2018-08-23T09:23:56.447Z,3588
2018-08-23T09:24:56.190Z,3620
2018-08-23T09:25:55.949Z,3640
2018-08-23T09:26:55.952Z,3660
2018-08-23T09:27:56.466Z,3844
2018-08-23T09:28:56.482Z,3940
2018-08-23T09:29:56.219Z,3904
2018-08-23T09:30:56.489Z,3924
2018-08-23T09:31:56.287Z,3796
2018-08-23T09:32:56.251Z,3760
2018-08-23T09:33:56.505Z,3824
2018-08-23T09:34:56.680Z,3680
2018-08-23T09:35:56.552Z,3700
2018-08-23T09:36:56.264Z,3684
2018-08-23T09:37:56.891Z,3704
2018-08-23T09:38:56.017Z,3680
2018-08-23T09:39:56.541Z,3680
2018-08-23T09:40:56.543Z,3772
2018-08-23T09:41:56.036Z,3816
2018-08-23T09:42:56.716Z,3752
2018-08-23T09:43:56.306Z,3704
2018-08-23T09:44:56.569Z,3696
2018-08-23T09:45:56.585Z,3716
2018-08-23T09:46:56.381Z,3720
2018-08-23T09:47:56.325Z,3716
2018-08-23T09:48:56.333Z,3724
2018-08-23T09:49:56.606Z,3724
2018-08-23T09:50:56.625Z,3704
2018-08-23T09:51:56.625Z,3468
2018-08-23T09:52:56.099Z,3648
2018-08-23T09:53:56.363Z,3604
2018-08-23T09:54:56.112Z,3580
2018-08-23T09:55:56.627Z,3644
2018-08-23T09:56:56.637Z,3756
2018-08-23T09:57:56.382Z,3932
2018-08-23T09:58:56.689Z,4080
2018-08-23T09:59:56.398Z,4052
2018-08-23T10:00:56.666Z,4004
2018-08-23T10:01:56.409Z,3584
2018-08-23T10:02:56.412Z,3696
2018-08-23T10:03:56.163Z,4252
2018-08-23T10:04:56.644Z,4180
2018-08-23T10:05:56.689Z,4172
2018-08-23T10:06:56.439Z,3600
2018-08-23T10:07:56.450Z,3656
2018-08-23T10:08:56.451Z,4024
2018-08-23T10:09:56.721Z,3404
2018-08-23T10:10:56.720Z,3220
2018-08-23T10:11:57.329Z,3088
2018-08-23T10:12:56.733Z,3264
2018-08-23T10:13:56.482Z,3020
2018-08-23T10:14:56.755Z,2880
2018-08-23T10:15:56.749Z,2780
2018-08-23T10:16:56.241Z,2676
2018-08-23T10:17:56.769Z,2680
2018-08-23T10:18:56.511Z,2728
2018-08-23T10:19:56.776Z,3456
2018-08-23T10:20:56.786Z,3784
2018-08-23T10:21:56.535Z,3780
2018-08-23T10:22:56.534Z,3752
2018-08-23T10:23:56.538Z,3776
2018-08-23T10:24:56.812Z,4032
2018-08-23T10:25:56.563Z,4076
2018-08-23T10:26:56.308Z,4292
2018-08-23T10:27:56.829Z,4828
2018-08-23T10:28:56.827Z,5312
2018-08-23T10:29:56.572Z,5776
2018-08-23T10:30:56.324Z,6004
2018-08-23T10:31:56.069Z,6304
2018-08-23T10:32:56.846Z,6660
2018-08-23T10:33:56.851Z,6920
2018-08-23T10:34:56.856Z,6584
2018-08-23T10:35:56.868Z,5988
2018-08-23T10:36:56.611Z,5368
2018-08-23T10:37:56.876Z,4948
2018-08-23T10:38:56.628Z,4652
2018-08-23T10:39:56.890Z,4520
2018-08-23T10:40:56.929Z,4488
2018-08-23T10:41:56.909Z,4400
2018-08-23T10:42:56.904Z,4188
2018-08-23T10:43:56.659Z,4176
2018-08-23T10:44:56.662Z,4304
2018-08-23T10:45:56.410Z,4632
2018-08-23T10:46:56.722Z,4780
2018-08-23T10:47:56.682Z,4964
2018-08-23T10:48:56.949Z,5244
2018-08-23T10:49:56.436Z,5564
2018-08-23T10:50:57.281Z,5748
2018-08-23T10:51:56.713Z,6060
2018-08-23T10:52:56.972Z,6188
2018-08-23T10:53:56.723Z,6152
2018-08-23T10:54:56.988Z,5976
2018-08-23T10:55:56.475Z,5908
2018-08-23T10:56:56.744Z,5648
2018-08-23T10:57:56.747Z,5412
2018-08-23T10:58:56.780Z,5284
2018-08-23T10:59:56.758Z,5572
2018-08-23T11:00:57.050Z,6040
2018-08-23T11:01:57.034Z,6500
2018-08-23T11:02:56.780Z,6936
2018-08-23T11:03:57.049Z,7204
2018-08-23T11:04:56.793Z,7384
2018-08-23T11:05:57.065Z,7304
2018-08-23T11:06:56.809Z,7032
2018-08-23T11:07:57.070Z,6792
2018-08-23T11:08:56.564Z,6620
2018-08-23T11:09:57.135Z,6460
2018-08-23T11:10:56.843Z,6464
2018-08-23T11:11:57.115Z,6832
2018-08-23T11:12:57.112Z,7400
2018-08-23T11:13:57.120Z,7536
2018-08-23T11:14:56.870Z,7520
2018-08-23T11:15:57.130Z,7052
2018-08-23T11:16:57.812Z,6868
2018-08-23T11:17:57.152Z,7084
2018-08-23T11:18:56.893Z,7548
2018-08-23T11:19:56.905Z,8004
2018-08-23T11:20:56.914Z,8340
2018-08-23T11:21:57.192Z,8800
2018-08-23T11:22:56.979Z,9364
2018-08-23T11:23:57.196Z,9176
2018-08-23T11:24:56.682Z,8640
2018-08-23T11:25:57.205Z,8188
2018-08-23T11:26:56.960Z,7784
2018-08-23T11:27:57.223Z,7236
2018-08-23T11:28:56.977Z,7244
2018-08-23T11:29:57.546Z,7232
2018-08-23T11:30:56.990Z,6968
2018-08-23T11:31:57.259Z,6704
2018-08-23T11:32:57.006Z,6552
2018-08-23T11:33:57.275Z,6636
2018-08-23T11:34:56.778Z,6656
2018-08-23T11:35:57.026Z,6548
2018-08-23T11:36:57.296Z,6260
2018-08-23T11:37:56.789Z,6376
2018-08-23T11:38:57.327Z,6708
2018-08-23T11:39:57.315Z,7268
2018-08-23T11:40:57.335Z,8088
2018-08-23T11:41:56.817Z,8160
2018-08-23T11:42:57.650Z,7424
2018-08-23T11:43:57.351Z,7444
2018-08-23T11:44:56.844Z,7656
2018-08-23T11:45:56.853Z,8232
2018-08-23T11:46:57.116Z,9368
2018-08-23T11:47:57.126Z,9504
2018-08-23T11:48:57.968Z,9428
2018-08-23T11:49:57.397Z,8844
2018-08-23T11:50:57.149Z,8764
2018-08-23T11:51:57.430Z,8504
2018-08-23T11:52:57.544Z,8596
2018-08-23T11:53:57.480Z,8872
2018-08-23T11:54:57.182Z,9224
2018-08-23T11:55:57.186Z,9796
2018-08-23T11:56:57.459Z,9772
2018-08-23T11:57:57.627Z,9376
2018-08-23T11:58:57.221Z,8944
2018-08-23T11:59:57.231Z,8532
2018-08-23T12:00:56.978Z,8120
2018-08-23T12:01:57.267Z,7656
2018-08-23T12:02:57.254Z,7332
2018-08-23T12:03:57.506Z,7180
2018-08-23T12:04:57.268Z,7532
2018-08-23T12:05:57.263Z,7536
2018-08-23T12:06:57.019Z,7936
2018-08-23T12:07:57.543Z,8300
2018-08-23T12:08:57.297Z,8464
2018-08-23T12:09:57.561Z,8156
2018-08-23T12:10:57.308Z,7380
2018-08-23T12:11:57.577Z,6580
2018-08-23T12:12:57.578Z,6180
2018-08-23T12:13:57.637Z,6100
2018-08-23T12:14:57.605Z,6204
2018-08-23T12:15:57.510Z,6224
2018-08-23T12:16:57.098Z,6164
2018-08-23T12:17:57.373Z,6068
2018-08-23T12:18:57.374Z,5940
2018-08-23T12:19:57.643Z,5764
2018-08-23T12:20:57.640Z,5568
2018-08-23T12:21:57.397Z,5488
2018-08-23T12:22:57.400Z,5356
2018-08-23T12:23:57.671Z,5300
2018-08-23T12:24:57.417Z,5464
2018-08-23T12:25:58.219Z,5764
2018-08-23T12:26:57.430Z,6012
2018-08-23T12:27:57.705Z,6224
2018-08-23T12:28:57.721Z,6504
2018-08-23T12:29:57.494Z,6684
2018-08-23T12:30:57.204Z,6760
2018-08-23T12:31:57.854Z,6800
2018-08-23T12:32:57.475Z,6904
2018-08-23T12:33:57.223Z,7056
2018-08-23T12:34:58.119Z,7128
2018-08-23T12:35:57.504Z,7140
2018-08-23T12:36:57.245Z,7128
2018-08-23T12:37:57.825Z,7160
2018-08-23T12:38:57.775Z,7360
2018-08-23T12:39:57.520Z,7800
2018-08-23T12:40:57.966Z,8432
2018-08-23T12:41:57.539Z,8916
2018-08-23T12:42:57.546Z,9148
2018-08-23T12:43:57.401Z,9196
2018-08-23T12:44:57.818Z,9388
2018-08-23T12:45:57.565Z,9740
2018-08-23T12:46:57.364Z,10288
2018-08-23T12:47:57.580Z,10676
2018-08-23T12:48:57.583Z,10728
2018-08-23T12:49:57.720Z,10260
2018-08-23T12:50:57.859Z,9672
2018-08-23T12:51:57.864Z,9192
2018-08-23T12:52:57.352Z,8708
2018-08-23T12:53:57.671Z,8252
2018-08-23T12:54:57.883Z,7828
2018-08-23T12:55:57.889Z,7452
2018-08-23T12:56:57.895Z,7072
2018-08-23T12:57:57.649Z,6616
2018-08-23T12:58:57.652Z,6064
2018-08-23T12:59:57.921Z,5560
2018-08-23T13:00:57.940Z,5188
2018-08-23T13:01:58.038Z,4916
2018-08-23T13:02:58.575Z,4540
2018-08-23T13:03:58.425Z,4160
2018-08-23T13:04:57.436Z,4012
2018-08-23T13:05:57.706Z,3980
2018-08-23T13:06:57.446Z,3984
2018-08-23T13:07:57.709Z,4040
2018-08-23T13:08:58.006Z,4196
2018-08-23T13:09:57.733Z,4636
2018-08-23T13:10:57.862Z,5112
2018-08-23T13:11:57.738Z,5760
2018-08-23T13:12:57.737Z,6216
2018-08-23T13:13:58.002Z,6452
2018-08-23T13:14:58.012Z,6480
2018-08-23T13:15:58.012Z,6396
2018-08-23T13:16:58.025Z,6152
2018-08-23T13:17:58.205Z,5980
2018-08-23T13:18:58.074Z,5880
2018-08-23T13:19:58.112Z,5840
2018-08-23T13:20:58.044Z,5820
2018-08-23T13:21:58.511Z,5808
2018-08-23T13:22:58.093Z,5816
2018-08-23T13:23:57.807Z,5832
2018-08-23T13:24:57.552Z,5960
2018-08-23T13:25:57.831Z,6228
2018-08-23T13:26:57.890Z,6644
2018-08-23T13:27:57.847Z,7056
2018-08-23T13:28:57.830Z,7252
2018-08-23T13:29:57.749Z,7216
2018-08-23T13:30:57.872Z,7024
2018-08-23T13:31:58.186Z,6736
2018-08-23T13:32:58.109Z,6464
2018-08-23T13:33:57.598Z,6252
2018-08-23T13:34:57.606Z,6040
2018-08-23T13:35:57.865Z,5876
2018-08-23T13:36:58.326Z,5648
2018-08-23T13:37:58.135Z,5404
2018-08-23T13:38:57.641Z,5180
2018-08-23T13:39:58.139Z,4940
2018-08-23T13:40:57.625Z,4652
2018-08-23T13:41:57.799Z,4384
2018-08-23T13:42:57.939Z,4228
2018-08-23T13:43:58.289Z,4196